Time;durP1;ratioP1;P1;durP2;ratioP2;P2;SDS_P1;SDS_P2;PMS_P1;PMS_P2;Temp;Humidity;BMP_temperature;BMP_pressure;BME280_temperature;BME280_humidity;BME280_pressure;Samples;Min_cycle;Max_cycle;Signal;HPM_P1;HPM_P2
2021/01/21 00:01:38;;;;;;;1.07;0.83;;;11.40;1.00;;;;;;5038695;28;20213;-78
2021/01/21 00:04:05;;;;;;;1.60;0.77;;;11.40;1.00;;;;;;5035030;28;20224;-79
2021/01/21 00:06:31;;;;;;;2.40;0.80;;;11.40;1.00;;;;;;5038798;28;20256;-79
2021/01/21 00:08:57;;;;;;;1.10;1.00;;;11.40;1.00;;;;;;5023644;28;20225;-79
2021/01/21 00:11:25;;;;;;;1.33;0.73;;;11.40;1.00;;;;;;5035804;28;20197;-79
2021/01/21 00:13:51;;;;;;;1.70;0.90;;;11.40;1.00;;;;;;5019999;28;20569;-77
2021/01/21 00:16:17;;;;;;;2.83;0.83;;;11.40;1.00;;;;;;5038598;28;20276;-78
2021/01/21 00:18:44;;;;;;;4.43;1.03;;;11.50;1.00;;;;;;5037826;28;20238;-78
2021/01/21 00:21:10;;;;;;;3.20;0.73;;;11.50;1.00;;;;;;5019872;28;20833;-79
2021/01/21 00:23:36;;;;;;;2.23;1.00;;;11.40;1.00;;;;;;5038429;28;20216;-78
2021/01/21 00:26:03;;;;;;;1.50;0.93;;;11.50;1.00;;;;;;5021083;28;20208;-78
2021/01/21 00:28:29;;;;;;;1.33;0.73;;;11.50;1.00;;;;;;5037715;28;20304;-78
2021/01/21 00:30:56;;;;;;;1.60;1.03;;;11.50;1.00;;;;;;5007777;28;20200;-79
2021/01/21 00:33:22;;;;;;;5.17;0.93;;;11.50;1.00;;;;;;5034474;28;20310;-75
2021/01/21 00:35:48;;;;;;;2.00;1.10;;;11.50;1.00;;;;;;5032160;28;20655;-78
2021/01/21 00:38:15;;;;;;;4.83;1.20;;;11.50;1.00;;;;;;5008743;28;20200;-80
2021/01/21 00:40:41;;;;;;;0.70;0.70;;;11.50;1.00;;;;;;5035916;28;20223;-79
2021/01/21 00:43:07;;;;;;;1.50;0.60;;;11.50;1.00;;;;;;5038811;28;20258;-78
2021/01/21 00:45:34;;;;;;;3.60;0.90;;;11.40;1.00;;;;;;5022456;28;20294;-78
2021/01/21 00:48:00;;;;;;;1.93;0.70;;;11.40;1.00;;;;;;5035375;28;20236;-78
2021/01/21 00:50:27;;;;;;;1.63;0.87;;;11.40;1.00;;;;;;5016296;28;20257;-78
2021/01/21 00:52:53;;;;;;;1.70;0.70;;;11.40;1.00;;;;;;5034718;28;20288;-78
2021/01/21 00:55:19;;;;;;;0.60;0.57;;;11.50;99.90;;;;;;5036924;28;20307;-78
2021/01/21 00:57:45;;;;;;;3.43;0.90;;;11.50;99.90;;;;;;5017504;28;20245;-78
2021/01/21 01:00:12;;;;;;;3.07;1.00;;;11.40;1.00;;;;;;5015465;28;20233;-78
2021/01/21 01:02:39;;;;;;;1.63;0.60;;;11.50;99.90;;;;;;5034203;28;20212;-78
2021/01/21 01:05:06;;;;;;;1.70;0.73;;;11.50;49.10;;;;;;5010019;28;20215;-78
2021/01/21 01:07:33;;;;;;;2.10;1.00;;;11.50;65.50;;;;;;5037106;28;20211;-77
2021/01/21 01:09:59;;;;;;;0.53;0.43;;;11.50;14.70;;;;;;5021905;28;20350;-75
2021/01/21 01:12:25;;;;;;;1.13;0.80;;;11.60;1.00;;;;;;5034738;28;20261;-79
2021/01/21 01:14:52;;;;;;;1.77;0.70;;;11.70;1.00;;;;;;5047770;28;20663;-77
2021/01/21 01:17:18;;;;;;;3.00;0.83;;;11.70;1.00;;;;;;5034130;28;20200;-77
2021/01/21 01:19:45;;;;;;;1.50;0.80;;;11.70;1.00;;;;;;5032643;28;20215;-77
2021/01/21 01:22:13;;;;;;;1.30;0.80;;;11.70;1.00;;;;;;5049382;28;20211;-78
2021/01/21 01:24:39;;;;;;;0.83;0.43;;;11.80;99.90;;;;;;5016409;28;20231;-78
2021/01/21 01:27:07;;;;;;;1.83;0.70;;;11.80;99.90;;;;;;5032143;28;20362;-77
2021/01/21 01:29:35;;;;;;;1.63;0.90;;;11.80;99.90;;;;;;5032937;28;20340;-78
2021/01/21 01:32:01;;;;;;;1.57;0.80;;;11.90;99.90;;;;;;5026270;28;20200;-78
2021/01/21 01:34:27;;;;;;;1.23;0.53;;;11.90;99.90;;;;;;5003992;28;20211;-78
2021/01/21 01:36:54;;;;;;;3.30;0.97;;;12.00;1.00;;;;;;5033291;28;21203;-77
2021/01/21 01:39:21;;;;;;;1.33;0.87;;;12.10;1.00;;;;;;5033508;28;20235;-77
2021/01/21 01:41:48;;;;;;;1.17;0.80;;;12.10;1.00;;;;;;5035831;28;20946;-78
2021/01/21 01:44:14;;;;;;;1.53;0.70;;;12.10;1.00;;;;;;5018744;28;20676;-78
2021/01/21 01:46:41;;;;;;;0.87;0.80;;;12.10;1.00;;;;;;5005969;28;20199;-79
2021/01/21 01:49:07;;;;;;;3.20;0.90;;;12.20;1.00;;;;;;5028868;28;20231;-78
2021/01/21 01:51:38;;;;;;;4.63;1.33;;;12.20;1.00;;;;;;5049878;28;20204;-77
2021/01/21 01:54:05;;;;;;;2.20;0.70;;;12.20;1.00;;;;;;5012551;28;20212;-78
2021/01/21 01:56:31;;;;;;;0.90;0.70;;;12.30;1.00;;;;;;5041601;28;20210;-77
2021/01/21 01:58:59;;;;;;;2.60;0.67;;;12.40;1.00;;;;;;5038410;28;20239;-74
2021/01/21 02:01:26;;;;;;;0.97;0.63;;;12.50;1.00;;;;;;5034321;28;20560;-79
2021/01/21 02:03:52;;;;;;;2.63;0.50;;;12.50;1.00;;;;;;5002258;28;20215;-78
2021/01/21 02:06:19;;;;;;;1.33;0.60;;;12.50;1.00;;;;;;5023345;28;20646;-77
2021/01/21 02:08:46;;;;;;;1.30;0.73;;;12.50;1.00;;;;;;5023715;28;20248;-78
2021/01/21 02:11:37;;;;;;;1.93;0.73;;;12.60;1.00;;;;;;5031649;28;20247;-79
2021/01/21 02:14:15;;;;;;;1.03;0.87;;;12.30;99.90;;;;;;5037599;28;20203;-78
2021/01/21 02:17:17;;;;;;;1.27;0.70;;;12.30;99.90;;;;;;5034646;28;20304;-78
2021/01/21 02:20:15;;;;;;;1.13;0.70;;;12.30;99.90;;;;;;5017810;28;20308;-79
2021/01/21 02:22:47;;;;;;;1.80;0.77;;;12.30;99.90;;;;;;5039151;28;20687;-78
2021/01/21 02:25:21;;;;;;;3.70;1.00;;;12.40;57.20;;;;;;5042531;28;20226;-77
2021/01/21 02:28:09;;;;;;;0.50;0.43;;;12.40;39.80;;;;;;5050084;28;20212;-74
2021/01/21 02:30:54;;;;;;;0.43;0.30;;;12.50;1.00;;;;;;5038180;28;20327;-79
2021/01/21 02:34:11;;;;;;;0.67;0.67;;;12.60;1.00;;;;;;5035485;28;20203;-78
2021/01/21 02:36:44;;;;;;;0.70;0.30;;;12.60;1.00;;;;;;5030207;28;20573;-79
2021/01/21 02:39:12;;;;;;;1.23;0.53;;;12.60;1.00;;;;;;5032198;28;20558;-77
2021/01/21 02:41:38;;;;;;;0.40;0.40;;;12.60;1.00;;;;;;5018476;28;20235;-78
2021/01/21 02:44:05;;;;;;;4.77;0.60;;;12.70;55.30;;;;;;5021056;28;21076;-76
2021/01/21 02:46:31;;;;;;;1.37;0.47;;;12.60;99.90;;;;;;5017364;28;20204;-75
2021/01/21 02:48:58;;;;;;;2.33;0.50;;;12.50;99.90;;;;;;5001396;28;20234;-77
2021/01/21 02:51:51;;;;;;;1.33;0.60;;;12.40;1.00;;;;;;5017164;28;20228;-79
2021/01/21 02:54:43;;;;;;;0.87;0.40;;;12.40;1.00;;;;;;5012577;28;20295;-77
2021/01/21 02:57:25;;;;;;;0.63;0.40;;;12.40;1.00;;;;;;5030126;28;20224;-78
2021/01/21 02:59:55;;;;;;;2.50;0.70;;;12.40;99.90;;;;;;5018517;28;20376;-78
2021/01/21 03:02:24;;;;;;;2.30;0.50;;;12.20;99.90;;;;;;5029824;28;20212;-78
2021/01/21 03:04:53;;;;;;;3.70;0.70;;;12.00;99.90;;;;;;5013163;28;20216;-79
2021/01/21 03:07:22;;;;;;;1.50;0.60;;;11.80;1.00;;;;;;5017534;28;20505;-78
2021/01/21 03:09:49;;;;;;;3.07;0.77;;;11.90;1.00;;;;;;5040146;28;20773;-77
2021/01/21 03:12:16;;;;;;;1.67;0.43;;;11.80;99.90;;;;;;5035851;28;20231;-79
2021/01/21 03:14:43;;;;;;;1.03;0.40;;;11.80;1.00;;;;;;5044382;28;20247;-78
2021/01/21 03:17:10;;;;;;;3.30;0.90;;;11.60;93.00;;;;;;5018045;28;20198;-78
2021/01/21 03:19:36;;;;;;;1.90;0.60;;;11.50;99.90;;;;;;5025816;28;20221;-79
2021/01/21 03:22:03;;;;;;;2.30;0.50;;;11.50;1.00;;;;;;5028203;28;20660;-79
2021/01/21 03:24:29;;;;;;;0.40;0.30;;;11.70;1.00;;;;;;5025339;28;20208;-79
2021/01/21 03:26:56;;;;;;;1.67;0.40;;;11.70;32.50;;;;;;5034574;28;20887;-79
2021/01/21 03:29:23;;;;;;;1.33;0.63;;;11.70;1.00;;;;;;5026902;28;20223;-80
2021/01/21 03:31:49;;;;;;;1.20;1.07;;;11.90;1.00;;;;;;5047823;28;20243;-79
2021/01/21 03:34:16;;;;;;;0.93;0.60;;;11.80;1.00;;;;;;5022136;28;20210;-78
2021/01/21 03:36:42;;;;;;;0.80;0.43;;;11.90;99.90;;;;;;5039256;28;20266;-78
2021/01/21 03:39:08;;;;;;;2.30;0.60;;;11.80;1.00;;;;;;5015155;28;20235;-79
2021/01/21 03:41:34;;;;;;;1.50;0.50;;;11.70;1.00;;;;;;5010034;28;20218;-77
2021/01/21 03:44:01;;;;;;;0.50;0.30;;;11.70;1.00;;;;;;5040736;28;20583;-79
2021/01/21 03:46:28;;;;;;;0.77;0.50;;;11.50;99.90;;;;;;4999740;28;20290;-78
2021/01/21 03:48:54;;;;;;;1.93;0.83;;;11.30;1.00;;;;;;5001897;28;20235;-75
2021/01/21 03:51:20;;;;;;;2.43;0.87;;;11.10;1.00;;;;;;5022006;28;20644;-78
2021/01/21 03:53:47;;;;;;;2.23;0.73;;;10.90;54.30;;;;;;5019543;28;20215;-78
2021/01/21 03:56:13;;;;;;;0.57;0.57;;;10.80;99.90;;;;;;5021682;28;20312;-76
2021/01/21 03:58:39;;;;;;;3.60;0.90;;;10.70;99.90;;;;;;5020052;28;20228;-77
2021/01/21 04:01:06;;;;;;;0.90;0.30;;;10.60;99.90;;;;;;5007798;28;20326;-77
2021/01/21 04:03:32;;;;;;;1.03;0.33;;;8.60;1.00;;;;;;5017968;28;20243;-76
2021/01/21 04:06:00;;;;;;;1.83;0.50;;;7.50;99.90;;;;;;5014179;28;20278;-80
2021/01/21 04:08:27;;;;;;;1.37;0.40;;;7.10;99.90;;;;;;5021175;28;20255;-79
2021/01/21 04:10:54;;;;;;;6.70;0.40;;;7.00;99.90;;;;;;5022202;28;20228;-78
2021/01/21 04:13:20;;;;;;;3.30;1.70;;;6.90;99.90;;;;;;5017789;28;20206;-77
2021/01/21 04:15:47;;;;;;;0.97;0.30;;;6.90;99.90;;;;;;5007105;28;20238;-78
2021/01/21 04:18:13;;;;;;;1.13;0.30;;;7.00;99.90;;;;;;5006935;28;20198;-78
2021/01/21 04:20:40;;;;;;;0.90;0.27;;;7.20;40.90;;;;;;5019389;28;20210;-74
2021/01/21 04:23:07;;;;;;;1.10;0.23;;;7.30;1.00;;;;;;5016729;28;20280;-77
2021/01/21 04:25:33;;;;;;;2.47;0.40;;;7.40;1.00;;;;;;5018864;28;20203;-79
2021/01/21 04:28:00;;;;;;;0.83;0.50;;;7.40;1.00;;;;;;5001045;28;20626;-79
2021/01/21 04:30:27;;;;;;;0.93;0.30;;;7.50;1.00;;;;;;5021693;28;20321;-78
2021/01/21 04:32:53;;;;;;;0.53;0.40;;;7.60;1.00;;;;;;5002926;28;20580;-78
2021/01/21 04:35:20;;;;;;;2.20;0.80;;;7.50;1.00;;;;;;5018598;28;20239;-77
2021/01/21 04:37:46;;;;;;;0.70;0.60;;;7.50;1.00;;;;;;5013789;28;20205;-78
2021/01/21 04:40:13;;;;;;;4.67;0.90;;;7.40;1.00;;;;;;5015151;28;20231;-78
2021/01/21 04:42:41;;;;;;;0.50;0.20;;;7.30;1.00;;;;;;5016256;28;20237;-76
2021/01/21 04:45:08;;;;;;;5.33;0.67;;;7.30;1.00;;;;;;5014158;28;20249;-80
2021/01/21 04:47:35;;;;;;;2.07;0.40;;;7.20;1.00;;;;;;5023661;28;20267;-78
2021/01/21 04:50:04;;;;;;;0.20;0.10;;;7.10;1.00;;;;;;5037473;28;20215;-78
2021/01/21 04:52:34;;;;;;;1.70;0.20;;;7.10;1.00;;;;;;5036786;28;20200;-79
2021/01/21 04:55:10;;;;;;;2.77;0.37;;;7.10;99.90;;;;;;5037943;28;20210;-80
2021/01/21 04:57:45;;;;;;;2.50;0.27;;;7.10;99.90;;;;;;5023527;28;20203;-79
2021/01/21 05:00:12;;;;;;;1.83;0.40;;;7.10;1.00;;;;;;5040229;28;20526;-79
2021/01/21 05:02:40;;;;;;;1.77;0.37;;;7.20;99.90;;;;;;5040976;28;20201;-78
2021/01/21 05:05:10;;;;;;;1.70;0.37;;;7.20;1.00;;;;;;5011952;28;20695;-78
2021/01/21 05:07:38;;;;;;;0.40;0.07;;;7.20;1.00;;;;;;5039947;28;20268;-78
2021/01/21 05:10:09;;;;;;;0.67;0.20;;;7.20;1.00;;;;;;5017184;28;20294;-78
2021/01/21 05:12:36;;;;;;;0.23;0.10;;;7.30;99.80;;;;;;5038517;28;20213;-79
2021/01/21 05:15:04;;;;;;;4.10;0.40;;;7.30;99.90;;;;;;5039027;28;20212;-78
2021/01/21 05:17:31;;;;;;;2.73;0.50;;;7.30;1.00;;;;;;5024054;28;20196;-78
2021/01/21 05:19:59;;;;;;;1.33;0.50;;;7.20;5.90;;;;;;5042548;28;20207;-79
2021/01/21 05:22:26;;;;;;;0.90;0.40;;;7.20;1.00;;;;;;5026610;28;20240;-78
2021/01/21 05:24:52;;;;;;;1.40;0.60;;;7.30;1.00;;;;;;5037364;28;20205;-77
2021/01/21 05:27:20;;;;;;;1.83;0.57;;;7.30;99.90;;;;;;5038833;28;20291;-79
2021/01/21 05:29:48;;;;;;;3.70;1.03;;;7.40;99.90;;;;;;5037022;28;20673;-78
2021/01/21 05:32:19;;;;;;;1.67;0.50;;;7.30;1.00;;;;;;5038585;28;20235;-79
2021/01/21 05:34:47;;;;;;;6.03;0.50;;;7.40;1.80;;;;;;5035963;28;20217;-78
2021/01/21 05:37:15;;;;;;;7.53;0.70;;;7.30;1.00;;;;;;5039419;28;20273;-79
2021/01/21 05:39:45;;;;;;;4.20;0.70;;;7.30;99.90;;;;;;5041047;28;20200;-78
2021/01/21 05:42:13;;;;;;;2.87;0.60;;;7.40;1.00;;;;;;5026730;28;20280;-77
2021/01/21 05:44:40;;;;;;;2.20;0.50;;;7.40;86.30;;;;;;5020244;28;20243;-77
2021/01/21 05:47:08;;;;;;;2.47;0.63;;;7.40;67.40;;;;;;5025099;28;20203;-78
2021/01/21 05:49:36;;;;;;;4.00;0.80;;;7.40;1.00;;;;;;5020414;28;20242;-79
2021/01/21 05:52:03;;;;;;;1.77;0.70;;;7.40;1.00;;;;;;5022808;28;20231;-78
2021/01/21 05:54:30;;;;;;;1.70;0.87;;;7.40;1.00;;;;;;5035364;28;20226;-78
2021/01/21 05:56:59;;;;;;;2.47;0.80;;;7.40;1.00;;;;;;5039464;28;20934;-79
2021/01/21 05:59:28;;;;;;;1.40;0.60;;;7.40;1.00;;;;;;5023733;28;20250;-79
2021/01/21 06:01:57;;;;;;;2.37;0.77;;;7.40;1.00;;;;;;5017487;28;20636;-79
2021/01/21 06:04:28;;;;;;;3.50;0.77;;;7.30;1.00;;;;;;5030852;28;20216;-79
2021/01/21 06:06:55;;;;;;;6.03;0.83;;;7.40;99.90;;;;;;5038256;28;20294;-80
2021/01/21 06:09:29;;;;;;;4.47;0.80;;;7.20;1.00;;;;;;5044993;28;20722;-77
2021/01/21 06:12:03;;;;;;;2.73;0.70;;;7.20;1.00;;;;;;5034065;28;20229;-79
2021/01/21 06:14:30;;;;;;;5.13;0.97;;;7.30;1.00;;;;;;5024837;28;20213;-80
2021/01/21 06:16:57;;;;;;;3.77;1.57;;;7.20;1.00;;;;;;5038030;28;20198;-79
2021/01/21 06:19:24;;;;;;;1.90;0.60;;;7.20;1.00;;;;;;5024415;28;20225;-77
2021/01/21 06:22:00;;;;;;;2.83;0.73;;;7.10;1.00;;;;;;5021979;28;20203;-80
2021/01/21 06:24:29;;;;;;;8.47;1.00;;;7.00;1.00;;;;;;5025310;28;20211;-79
2021/01/21 06:26:58;;;;;;;2.90;0.60;;;7.00;1.00;;;;;;5029208;28;20212;-77
2021/01/21 06:29:27;;;;;;;2.20;0.80;;;7.10;1.00;;;;;;5021691;28;20220;-80
2021/01/21 06:31:58;;;;;;;3.57;0.77;;;7.00;1.00;;;;;;5023001;28;20664;-78
2021/01/21 06:34:32;;;;;;;5.90;0.70;;;6.80;99.90;;;;;;5025946;28;20221;-80
2021/01/21 06:37:03;;;;;;;4.50;1.00;;;6.80;1.00;;;;;;5026770;28;20294;-80
2021/01/21 06:39:46;;;;;;;2.20;0.70;;;6.80;99.90;;;;;;5053637;28;20208;-79
2021/01/21 06:42:28;;;;;;;2.73;0.93;;;6.80;99.90;;;;;;5037400;28;20264;-76
2021/01/21 06:44:58;;;;;;;3.50;0.57;;;6.70;1.00;;;;;;5040278;28;20690;-77
2021/01/21 06:47:30;;;;;;;7.57;1.03;;;6.70;1.00;;;;;;5037449;28;20295;-79
2021/01/21 06:49:59;;;;;;;5.97;1.20;;;6.70;1.00;;;;;;5041459;28;20233;-78
2021/01/21 06:52:30;;;;;;;2.97;1.03;;;6.60;1.00;;;;;;5021467;28;20202;-78
2021/01/21 06:54:58;;;;;;;1.93;0.50;;;6.60;1.00;;;;;;5038283;28;20650;-78
2021/01/21 06:57:34;;;;;;;4.33;0.80;;;6.60;1.00;;;;;;5035247;28;20256;-78
2021/01/21 07:00:08;;;;;;;1.90;0.60;;;6.60;1.00;;;;;;5040045;28;20514;-78
2021/01/21 07:02:47;;;;;;;4.37;1.27;;;6.50;17.10;;;;;;5041665;28;20272;-78
2021/01/21 07:05:19;;;;;;;2.80;1.03;;;6.50;99.90;;;;;;5037877;28;20301;-78
2021/01/21 07:08:03;;;;;;;2.10;0.70;;;6.50;1.00;;;;;;5038989;28;20554;-80
2021/01/21 07:10:34;;;;;;;4.10;0.80;;;6.50;31.80;;;;;;5032393;28;20217;-80
2021/01/21 07:13:06;;;;;;;2.33;0.77;;;6.50;1.00;;;;;;5020688;28;20232;-77
2021/01/21 07:15:50;;;;;;;4.40;0.90;;;6.50;1.00;;;;;;5017800;28;20209;-78
2021/01/21 07:18:24;;;;;;;2.77;1.20;;;6.40;99.90;;;;;;5035130;28;20220;-78
2021/01/21 07:21:16;;;;;;;3.40;0.60;;;6.40;1.00;;;;;;5035360;28;20336;-78
2021/01/21 07:23:54;;;;;;;2.57;0.50;;;6.40;99.90;;;;;;5013557;28;20203;-79
2021/01/21 07:26:26;;;;;;;3.73;1.07;;;6.40;99.90;;;;;;5033908;28;20209;-79
2021/01/21 07:29:21;;;;;;;2.90;1.07;;;6.50;95.00;;;;;;5033025;28;20292;-78
2021/01/21 07:31:56;;;;;;;1.93;1.17;;;6.50;21.10;;;;;;5022262;28;20230;-77
2021/01/21 07:34:43;;;;;;;2.00;0.93;;;6.50;1.00;;;;;;5032829;28;20195;-77
2021/01/21 07:37:11;;;;;;;3.77;0.90;;;6.40;1.00;;;;;;5039860;28;20273;-79
2021/01/21 07:40:07;;;;;;;6.23;1.63;;;6.40;1.00;;;;;;5038336;28;20265;-80
2021/01/21 07:42:33;;;;;;;3.30;1.33;;;6.40;1.00;;;;;;5024999;28;20257;-79
2021/01/21 07:45:05;;;;;;;4.57;1.50;;;6.50;1.00;;;;;;5054907;28;20315;-81
2021/01/21 07:47:37;;;;;;;2.20;1.13;;;6.50;99.90;;;;;;5019166;28;20264;-77
2021/01/21 07:50:21;;;;;;;5.77;1.40;;;6.50;1.00;;;;;;5017737;28;20231;-78
2021/01/21 07:52:53;;;;;;;2.80;0.80;;;6.50;1.00;;;;;;5037747;28;20218;-80
2021/01/21 07:55:30;;;;;;;5.23;1.20;;;6.50;1.00;;;;;;5033290;28;20627;-80
2021/01/21 07:58:19;;;;;;;4.43;1.30;;;6.60;1.00;;;;;;5040836;28;20313;-80
2021/01/21 08:00:47;;;;;;;4.27;1.57;;;6.60;99.90;;;;;;5028028;28;20310;-78
2021/01/21 08:03:14;;;;;;;5.23;0.80;;;6.50;1.00;;;;;;5041793;28;20569;-76
2021/01/21 08:05:41;;;;;;;3.17;1.23;;;6.50;1.00;;;;;;5027380;28;20207;-77
2021/01/21 08:08:07;;;;;;;1.90;1.20;;;6.60;1.00;;;;;;5045386;28;20956;-78
2021/01/21 08:10:36;;;;;;;5.77;1.17;;;6.60;1.00;;;;;;5055053;28;20736;-80
2021/01/21 08:13:14;;;;;;;14.77;1.50;;;6.60;1.00;;;;;;5028796;28;20659;-79
2021/01/21 08:15:41;;;;;;;2.20;1.00;;;6.70;1.00;;;;;;5042286;28;20229;-79
2021/01/21 08:18:14;;;;;;;7.37;1.43;;;6.60;59.20;;;;;;5017286;28;20194;-78
2021/01/21 08:20:40;;;;;;;6.17;1.17;;;6.60;80.40;;;;;;5038625;28;20288;-79
2021/01/21 08:23:10;;;;;;;4.93;1.00;;;6.60;99.90;;;;;;5035036;28;20214;-77
2021/01/21 08:25:42;;;;;;;6.30;1.10;;;6.60;1.00;;;;;;5041197;28;20612;-79
2021/01/21 08:28:10;;;;;;;7.30;1.00;;;6.60;1.00;;;;;;5036958;28;20534;-79
2021/01/21 08:30:37;;;;;;;2.90;0.93;;;6.60;1.00;;;;;;5017607;28;20296;-78
2021/01/21 08:33:28;;;;;;;3.70;1.07;;;6.60;1.00;;;;;;5023364;28;20201;-79
2021/01/21 08:36:01;;;;;;;5.87;0.80;;;6.60;1.00;;;;;;5043064;28;20224;-79
2021/01/21 08:38:35;;;;;;;4.95;1.25;;;6.70;99.90;;;;;;5032108;28;20453;-78
2021/01/21 08:41:04;;;;;;;2.20;0.77;;;6.80;27.10;;;;;;5037848;28;20225;-78
2021/01/21 08:43:31;;;;;;;3.67;1.10;;;6.80;99.90;;;;;;5025105;28;20212;-78
2021/01/21 08:45:58;;;;;;;6.53;1.00;;;6.90;1.00;;;;;;5016784;28;20250;-76
2021/01/21 08:48:29;;;;;;;3.40;1.50;;;6.80;99.90;;;;;;5006511;28;20200;-77
2021/01/21 08:50:56;;;;;;;6.20;1.07;;;6.80;99.90;;;;;;5024640;28;20247;-78
2021/01/21 08:53:25;;;;;;;4.57;1.10;;;6.80;1.00;;;;;;5033434;28;20279;-77
2021/01/21 08:55:54;;;;;;;5.23;1.13;;;6.90;99.90;;;;;;5035828;28;20211;-75
2021/01/21 08:58:28;;;;;;;5.50;0.73;;;7.00;99.90;;;;;;5021926;28;20227;-78
2021/01/21 09:01:06;;;;;;;2.40;0.80;;;7.00;99.90;;;;;;5020058;28;20232;-79
2021/01/21 09:03:48;;;;;;;1.47;1.03;;;7.00;1.00;;;;;;5032423;28;20809;-74
2021/01/21 09:06:19;;;;;;;1.70;0.63;;;7.10;1.00;;;;;;5033331;28;20899;-77
2021/01/21 09:08:57;;;;;;;2.87;1.10;;;7.30;1.00;;;;;;5030649;28;20204;-78
2021/01/21 09:11:29;;;;;;;10.23;2.50;;;7.30;99.90;;;;;;5033227;28;20634;-77
2021/01/21 09:13:56;;;;;;;2.43;0.50;;;7.40;99.90;;;;;;5031162;28;20210;-78
2021/01/21 09:16:41;;;;;;;7.73;1.27;;;7.40;99.90;;;;;;5036844;28;20208;-78
2021/01/21 09:19:07;;;;;;;6.53;0.93;;;7.50;1.00;;;;;;5039480;28;20202;-77
2021/01/21 09:21:34;;;;;;;7.67;1.13;;;7.70;1.00;;;;;;5037135;28;20275;-78
2021/01/21 09:24:12;;;;;;;3.27;1.40;;;7.60;1.00;;;;;;5019382;28;20308;-75
2021/01/21 09:26:38;;;;;;;5.30;0.77;;;7.80;1.00;;;;;;5020329;28;20603;-79
2021/01/21 09:29:04;;;;;;;3.10;0.73;;;7.80;1.00;;;;;;5009032;28;20202;-78
2021/01/21 09:31:31;;;;;;;3.97;0.50;;;7.50;99.90;;;;;;5000642;28;20288;-77
2021/01/21 09:33:59;;;;;;;0.90;0.47;;;7.40;1.00;;;;;;5026984;28;20273;-79
2021/01/21 09:36:28;;;;;;;3.20;0.60;;;7.50;1.00;;;;;;5034218;28;20204;-75
2021/01/21 09:38:58;;;;;;;1.37;1.00;;;7.40;1.00;;;;;;5020368;28;20213;-76
2021/01/21 09:41:25;;;;;;;7.68;1.67;;;7.40;1.00;;;;;;5036244;28;20925;-80
2021/01/21 09:43:51;;;;;;;4.10;0.87;;;7.50;1.00;;;;;;5028150;28;20261;-80
2021/01/21 09:46:21;;;;;;;1.53;0.93;;;7.50;1.00;;;;;;5036784;28;20264;-79
2021/01/21 09:48:47;;;;;;;4.90;0.97;;;7.50;80.30;;;;;;5028825;28;20270;-79
2021/01/21 09:51:13;;;;;;;5.13;1.03;;;7.40;91.60;;;;;;5020901;28;20282;-78
2021/01/21 09:53:40;;;;;;;2.13;0.97;;;7.50;99.90;;;;;;5021163;28;20257;-80
2021/01/21 09:56:06;;;;;;;5.13;0.90;;;7.50;1.00;;;;;;5010655;28;20678;-78
2021/01/21 09:58:32;;;;;;;4.80;0.70;;;7.70;99.90;;;;;;5016980;28;20230;-79
2021/01/21 10:01:00;;;;;;;3.77;0.90;;;7.90;1.00;;;;;;5040626;28;20210;-78
2021/01/21 10:03:44;;;;;;;1.07;0.50;;;8.00;1.00;;;;;;5038385;28;20262;-79
2021/01/21 10:06:11;;;;;;;3.03;0.80;;;7.90;99.90;;;;;;5027926;28;20201;-79
2021/01/21 10:08:37;;;;;;;7.67;1.33;;;7.90;1.00;;;;;;5023122;28;20266;-79
2021/01/21 10:11:03;;;;;;;4.03;1.37;;;7.80;1.00;;;;;;5025793;28;20262;-78
2021/01/21 10:13:29;;;;;;;2.73;0.50;;;7.70;1.00;;;;;;5017775;28;20274;-80
2021/01/21 10:15:56;;;;;;;1.20;0.83;;;7.80;1.00;;;;;;5016857;28;20297;-78
2021/01/21 10:18:22;;;;;;;3.37;0.70;;;8.00;1.00;;;;;;5017107;28;20249;-78
2021/01/21 10:20:48;;;;;;;8.27;0.87;;;8.10;1.00;;;;;;5025429;28;20194;-79
2021/01/21 10:23:15;;;;;;;9.13;1.13;;;8.00;99.90;;;;;;5024072;28;20261;-75
2021/01/21 10:25:41;;;;;;;5.37;1.50;;;7.80;1.00;;;;;;5027111;28;20247;-78
2021/01/21 10:28:07;;;;;;;1.97;0.73;;;7.80;99.90;;;;;;5007654;28;20263;-78
2021/01/21 10:30:34;;;;;;;1.70;0.60;;;7.80;99.90;;;;;;5020342;28;20784;-78
2021/01/21 10:33:00;;;;;;;2.57;0.73;;;7.80;1.00;;;;;;5036173;28;20283;-80
2021/01/21 10:35:27;;;;;;;2.13;0.97;;;7.70;1.00;;;;;;5021779;28;20639;-79
2021/01/21 10:37:53;;;;;;;1.07;0.70;;;7.70;1.00;;;;;;5018970;28;20264;-79
2021/01/21 10:40:19;;;;;;;6.60;1.17;;;7.80;1.00;;;;;;5034178;28;20216;-79
2021/01/21 10:42:45;;;;;;;1.60;0.80;;;7.80;1.00;;;;;;5036251;28;20203;-78
2021/01/21 10:45:12;;;;;;;3.37;1.27;;;7.90;1.00;;;;;;5046880;28;20267;-79
2021/01/21 10:47:38;;;;;;;2.57;1.13;;;7.90;1.00;;;;;;5019710;28;20635;-78
2021/01/21 10:50:06;;;;;;;2.97;0.70;;;7.90;1.00;;;;;;5014493;28;20804;-77
2021/01/21 10:52:32;;;;;;;3.73;0.80;;;7.90;1.00;;;;;;5000255;28;20201;-80
2021/01/21 10:54:59;;;;;;;7.67;0.90;;;7.90;1.00;;;;;;5014557;28;20206;-79
2021/01/21 10:57:28;;;;;;;1.40;0.97;;;8.00;99.90;;;;;;4997812;28;20257;-77
2021/01/21 10:59:55;;;;;;;4.77;1.03;;;8.00;1.00;;;;;;5015013;28;20229;-78
2021/01/21 11:02:21;;;;;;;7.73;0.80;;;7.90;1.00;;;;;;5012726;28;20266;-77
2021/01/21 11:04:47;;;;;;;1.53;0.73;;;7.90;1.00;;;;;;5017805;28;20233;-79
2021/01/21 11:07:17;;;;;;;3.10;1.30;;;7.80;99.90;;;;;;5010966;28;20214;-78
2021/01/21 11:09:43;;;;;;;3.57;1.03;;;7.80;99.90;;;;;;5015015;28;20225;-78
2021/01/21 11:12:10;;;;;;;4.03;0.50;;;7.80;16.30;;;;;;5003062;28;20728;-79
2021/01/21 11:14:37;;;;;;;3.47;0.80;;;7.80;1.00;;;;;;5015910;28;20202;-79
2021/01/21 11:17:03;;;;;;;6.67;0.67;;;7.70;1.00;;;;;;4987198;28;20966;-78
2021/01/21 11:19:30;;;;;;;2.33;0.73;;;7.70;99.90;;;;;;5003437;28;20215;-78
2021/01/21 11:21:57;;;;;;;4.10;1.13;;;7.70;99.90;;;;;;5020303;28;20201;-77
2021/01/21 11:24:23;;;;;;;5.47;0.70;;;7.70;99.90;;;;;;5018556;28;20205;-78
2021/01/21 11:26:49;;;;;;;4.00;1.03;;;7.70;1.00;;;;;;5015583;28;20207;-78
2021/01/21 11:29:16;;;;;;;1.53;0.70;;;7.80;1.00;;;;;;5018902;28;20200;-79
2021/01/21 11:31:42;;;;;;;3.30;1.17;;;7.80;99.90;;;;;;5018928;28;20228;-79
2021/01/21 11:34:09;;;;;;;6.90;0.80;;;7.80;1.00;;;;;;5020879;28;20274;-78
2021/01/21 11:36:35;;;;;;;3.33;0.83;;;7.90;1.00;;;;;;5016967;28;20214;-77
2021/01/21 11:39:03;;;;;;;3.80;1.17;;;7.90;1.00;;;;;;5026833;28;20208;-80
2021/01/21 11:41:29;;;;;;;6.77;1.53;;;8.10;1.00;;;;;;5024110;28;20216;-79
2021/01/21 11:43:55;;;;;;;4.47;1.00;;;8.10;4.10;;;;;;5032809;28;20323;-80
2021/01/21 11:46:22;;;;;;;3.20;1.00;;;8.10;56.80;;;;;;4996349;28;20235;-79
2021/01/21 11:48:50;;;;;;;2.07;0.70;;;8.20;99.90;;;;;;5013577;28;21618;-79
2021/01/21 11:51:18;;;;;;;3.20;1.00;;;8.20;1.00;;;;;;5015009;28;20215;-76
2021/01/21 11:53:44;;;;;;;0.80;0.67;;;8.20;99.90;;;;;;5026590;28;20238;-80
2021/01/21 11:56:10;;;;;;;1.37;0.60;;;8.20;1.00;;;;;;5016256;28;20645;-79
2021/01/21 11:58:44;;;;;;;6.03;1.07;;;8.10;1.00;;;;;;5026869;28;20295;-81
2021/01/21 12:01:11;;;;;;;3.47;0.70;;;8.10;1.00;;;;;;5015876;28;20207;-78
2021/01/21 12:03:37;;;;;;;3.17;0.70;;;8.20;1.00;;;;;;4986805;28;20206;-81
2021/01/21 12:06:04;;;;;;;3.50;0.90;;;8.40;99.90;;;;;;5018298;28;20829;-78
2021/01/21 12:08:31;;;;;;;2.00;0.80;;;8.30;99.90;;;;;;5019909;28;20277;-79
2021/01/21 12:10:58;;;;;;;2.00;0.77;;;8.20;1.00;;;;;;5008187;28;20229;-78
2021/01/21 12:13:25;;;;;;;1.13;0.60;;;8.20;99.90;;;;;;5001638;28;20209;-76
2021/01/21 12:15:51;;;;;;;0.93;0.63;;;8.20;1.00;;;;;;5022538;28;20259;-78
2021/01/21 12:18:17;;;;;;;1.60;0.50;;;8.10;1.00;;;;;;5019491;28;20197;-78
2021/01/21 12:20:44;;;;;;;0.83;0.70;;;8.10;99.90;;;;;;5020449;28;20207;-78
2021/01/21 12:23:11;;;;;;;2.87;0.73;;;8.10;1.00;;;;;;5015003;28;20212;-78
2021/01/21 12:25:38;;;;;;;3.93;0.77;;;8.10;1.00;;;;;;5005635;28;20672;-79
2021/01/21 12:28:04;;;;;;;0.90;0.60;;;8.20;1.00;;;;;;5013131;28;20232;-77
2021/01/21 12:30:31;;;;;;;6.57;1.30;;;8.30;1.00;;;;;;4998940;28;20219;-77
2021/01/21 12:32:57;;;;;;;6.07;0.97;;;8.40;1.00;;;;;;5006849;28;20217;-77
2021/01/21 12:35:24;;;;;;;5.30;0.63;;;8.40;1.00;;;;;;5019528;28;20223;-80
2021/01/21 12:37:50;;;;;;;4.83;0.97;;;8.40;1.00;;;;;;4998653;28;20239;-78
2021/01/21 12:40:16;;;;;;;2.47;0.70;;;8.30;1.00;;;;;;5035866;28;20743;-79
2021/01/21 12:42:43;;;;;;;2.80;1.00;;;8.30;12.30;;;;;;5018479;28;20212;-79
2021/01/21 12:45:10;;;;;;;4.17;1.27;;;8.40;1.00;;;;;;5029672;28;20247;-78
2021/01/21 12:47:37;;;;;;;4.40;0.83;;;8.40;1.00;;;;;;5013041;28;20215;-81
2021/01/21 12:50:05;;;;;;;5.43;1.07;;;8.40;74.00;;;;;;5020908;28;20216;-79
2021/01/21 12:52:32;;;;;;;3.10;1.20;;;8.50;99.90;;;;;;5041087;28;20257;-78
2021/01/21 12:54:58;;;;;;;4.83;1.40;;;8.50;1.00;;;;;;5046534;28;20204;-79
2021/01/21 12:57:27;;;;;;;2.90;0.67;;;8.40;1.00;;;;;;5009737;28;20220;-78
2021/01/21 12:59:57;;;;;;;3.80;1.00;;;8.30;1.00;;;;;;5039820;28;20307;-76
2021/01/21 13:02:27;;;;;;;1.37;0.50;;;8.40;99.90;;;;;;5021915;28;20267;-78
2021/01/21 13:04:55;;;;;;;0.77;0.40;;;8.30;1.00;;;;;;5011151;28;20215;-76
2021/01/21 13:07:21;;;;;;;1.23;0.70;;;8.30;1.00;;;;;;5037682;28;20246;-76
2021/01/21 13:09:49;;;;;;;1.67;0.60;;;8.30;99.90;;;;;;4999262;28;20655;-75
2021/01/21 13:12:15;;;;;;;5.87;0.80;;;8.30;1.00;;;;;;5017767;28;20194;-77